Time;durP1;ratioP1;P1;durP2;ratioP2;P2;SDS_P1;SDS_P2;PMS_P1;PMS_P2;Temp;Humidity;BMP_temperature;BMP_pressure;BME280_temperature;BME280_humidity;BME280_pressure;Samples;Min_cycle;Max_cycle;Signal;HPM_P1;HPM_P2
2022/01/12 00:01:01;;;;;;;9.68;4.80;;;;;;;-11.43;100.00;101163.59;5151810;27;20158;-49
2022/01/12 00:03:28;;;;;;;9.88;4.68;;;;;;;-11.37;100.00;101170.00;5151842;27;20078;-52
2022/01/12 00:05:54;;;;;;;7.82;4.43;;;;;;;-11.35;100.00;101162.72;5151583;27;20609;-51
2022/01/12 00:08:20;;;;;;;22.83;6.63;;;;;;;-11.41;100.00;101158.94;5151653;27;20051;-50
2022/01/12 00:10:47;;;;;;;14.13;5.53;;;;;;;-11.41;100.00;101160.75;5151517;27;20047;-51
2022/01/12 00:13:13;;;;;;;12.77;4.93;;;;;;;-11.48;100.00;101155.31;5151205;27;20054;-52
2022/01/12 00:15:40;;;;;;;13.52;5.40;;;;;;;-11.48;100.00;101159.78;5151229;27;20072;-54
2022/01/12 00:18:06;;;;;;;11.95;5.28;;;;;;;-11.48;100.00;101163.25;5151471;27;20043;-50
2022/01/12 00:20:34;;;;;;;9.48;4.88;;;;;;;-11.49;100.00;101166.91;5151444;27;20050;-53
2022/01/12 00:23:00;;;;;;;17.65;4.90;;;;;;;-11.50;100.00;101159.94;5151304;27;20058;-51
2022/01/12 00:25:33;;;;;;;7.47;4.22;;;;;;;-11.48;100.00;101159.78;5150929;27;20047;-52
2022/01/12 00:33:29;;;;;;;9.02;4.13;;;;;;;-11.55;100.00;101158.84;5151186;27;20046;-52
2022/01/12 00:35:58;;;;;;;9.15;4.65;;;;;;;-11.57;100.00;101159.00;5150895;27;20424;-51
2022/01/12 00:38:29;;;;;;;17.60;5.13;;;;;;;-11.58;100.00;101149.41;5151176;27;20047;-52
2022/01/12 00:40:56;;;;;;;8.90;4.30;;;;;;;-11.68;100.00;101146.13;5151105;27;20097;-52
2022/01/12 00:43:25;;;;;;;11.23;4.22;;;;;;;-11.67;100.00;101151.25;5151069;27;20054;-50
2022/01/12 00:45:52;;;;;;;8.25;4.53;;;;;;;-11.76;100.00;101159.38;5150875;27;20050;-54
2022/01/12 00:48:19;;;;;;;9.02;4.68;;;;;;;-11.76;100.00;101154.09;5151084;27;20082;-49
2022/01/12 00:50:46;;;;;;;11.75;4.28;;;;;;;-11.77;100.00;101144.50;5150818;27;20047;-52
2022/01/12 00:53:13;;;;;;;10.45;4.25;;;;;;;-11.75;100.00;101150.47;5154347;27;20053;-53
2022/01/12 00:55:39;;;;;;;11.60;4.32;;;;;;;-11.80;100.00;101150.13;5154385;27;20099;-49
2022/01/12 00:58:05;;;;;;;10.38;5.53;;;;;;;-11.74;100.00;101152.09;5154522;27;20069;-51
2022/01/12 01:00:32;;;;;;;8.00;4.32;;;;;;;-11.74;100.00;101155.56;5154502;27;20055;-50
2022/01/12 01:03:00;;;;;;;8.90;4.40;;;;;;;-11.73;100.00;101149.28;5154481;27;20137;-50
2022/01/12 01:05:28;;;;;;;7.82;4.43;;;;;;;-11.73;100.00;101144.00;5154128;27;20043;-52
2022/01/12 01:07:54;;;;;;;14.23;4.85;;;;;;;-11.75;100.00;101142.53;5154473;27;20501;-49
2022/01/12 01:10:29;;;;;;;11.20;4.65;;;;;;;-11.78;100.00;101134.94;5154248;27;20133;-50
2022/01/12 01:12:55;;;;;;;12.80;4.53;;;;;;;-11.77;100.00;101137.41;5154231;27;20051;-50
2022/01/12 01:15:38;;;;;;;12.63;4.65;;;;;;;-11.78;100.00;101129.66;5154248;27;20054;-51
2022/01/12 01:26:18;;;;;;;9.98;4.20;;;;;;;-11.82;100.00;101107.19;5153657;27;20427;-51
2022/01/12 01:28:45;;;;;;;11.93;5.05;;;;;;;-11.96;100.00;101104.28;5154007;27;20053;-50
2022/01/12 01:31:11;;;;;;;11.48;4.55;;;;;;;-12.00;100.00;101112.69;5153908;27;20047;-49
2022/01/12 01:33:38;;;;;;;6.93;4.18;;;;;;;-12.01;100.00;101113.72;5153765;27;20079;-52
2022/01/12 01:36:04;;;;;;;11.75;4.35;;;;;;;-11.97;100.00;101120.28;5153654;27;20042;-51
2022/01/12 01:38:30;;;;;;;9.77;4.78;;;;;;;-12.01;100.00;101116.34;5153778;27;20054;-50
2022/01/12 01:40:57;;;;;;;9.48;3.63;;;;;;;-12.01;100.00;101127.75;5153964;27;20061;-52
2022/01/12 01:43:38;;;;;;;13.13;4.78;;;;;;;-11.98;100.00;101123.94;5153937;27;20103;-50
2022/01/12 01:54:19;;;;;;;7.97;3.85;;;;;;;-12.03;100.00;101126.25;5153520;27;20543;-53
2022/01/12 01:56:45;;;;;;;7.93;3.50;;;;;;;-12.11;100.00;101117.34;5153567;27;20553;-50
2022/01/12 01:59:12;;;;;;;7.80;4.38;;;;;;;-12.06;100.00;101118.66;5153428;27;20061;-53
2022/01/12 02:01:38;;;;;;;11.90;4.07;;;;;;;-12.07;100.00;101117.03;5153538;27;20139;-49
2022/01/12 02:04:06;;;;;;;9.32;4.20;;;;;;;-12.07;100.00;101122.31;5152749;27;20063;-50
2022/01/12 02:06:33;;;;;;;9.70;4.18;;;;;;;-12.06;100.00;101116.88;5153324;27;20047;-52
2022/01/12 02:08:59;;;;;;;15.57;4.43;;;;;;;-12.03;100.00;101115.69;5153678;27;20094;-49
2022/01/12 02:11:26;;;;;;;9.82;4.55;;;;;;;-12.04;100.00;101117.50;5153059;27;20058;-53
2022/01/12 02:13:53;;;;;;;7.03;3.97;;;;;;;-12.06;100.00;101111.59;5153373;27;20043;-51
2022/01/12 02:16:24;;;;;;;8.93;3.97;;;;;;;-12.13;100.00;101106.16;5153149;27;20050;-54
2022/01/12 02:19:09;;;;;;;11.90;4.95;;;;;;;-12.10;100.00;101113.72;5153318;27;20058;-49
2022/01/12 02:35:43;;;;;;;9.43;3.83;;;;;;;-12.20;100.00;101105.16;5153028;27;20461;-53
2022/01/12 02:40:55;;;;;;;6.03;3.70;;;;;;;-12.22;100.00;101104.50;5153128;27;20053;-52
2022/01/12 02:43:38;;;;;;;5.97;3.92;;;;;;;-12.18;100.00;101097.06;5152680;27;20496;-53
2022/01/12 02:51:36;;;;;;;8.32;3.97;;;;;;;-12.18;100.00;101102.34;5152572;27;20068;-53
2022/01/12 02:54:04;;;;;;;7.75;4.35;;;;;;;-12.17;100.00;101099.53;5152674;27;20457;-53
2022/01/12 02:56:33;;;;;;;11.68;3.90;;;;;;;-12.14;100.00;101099.19;5152526;27;20496;-49
2022/01/12 02:58:59;;;;;;;14.30;4.25;;;;;;;-12.13;100.00;101100.00;5152446;27;20046;-51
2022/01/12 03:04:10;;;;;;;10.00;3.20;;;;;;;-12.23;100.00;101078.22;5152103;27;20088;-50
2022/01/12 03:06:39;;;;;;;7.35;3.70;;;;;;;-12.21;100.00;101077.06;5152610;27;20446;-52
2022/01/12 03:09:10;;;;;;;7.60;3.88;;;;;;;-12.23;100.00;101078.22;5152290;27;20505;-51
2022/01/12 03:11:37;;;;;;;10.60;4.30;;;;;;;-12.22;100.00;101082.53;5152358;27;20389;-52
2022/01/12 03:14:04;;;;;;;7.50;4.05;;;;;;;-12.20;100.00;101083.16;5151305;27;20051;-51
2022/01/12 03:16:30;;;;;;;9.68;4.00;;;;;;;-12.25;100.00;101069.66;5152343;27;20049;-49
2022/01/12 03:18:59;;;;;;;8.88;3.88;;;;;;;-12.24;100.00;101076.59;5152292;27;20115;-50
2022/01/12 03:21:28;;;;;;;9.20;3.97;;;;;;;-12.26;100.00;101079.41;5152130;27;20099;-52
2022/01/12 03:23:55;;;;;;;8.00;3.72;;;;;;;-12.24;100.00;101085.34;5152204;27;20473;-49
2022/01/12 03:26:25;;;;;;;5.80;3.25;;;;;;;-12.23;100.00;101089.63;5151442;27;20046;-50
2022/01/12 03:28:53;;;;;;;6.60;3.42;;;;;;;-12.19;100.00;101083.03;5151994;27;20051;-50
2022/01/12 03:31:22;;;;;;;9.20;4.18;;;;;;;-12.12;100.00;101093.75;5152106;27;20046;-51
2022/01/12 03:33:54;;;;;;;7.55;3.45;;;;;;;-12.16;100.00;101095.91;5152042;27;20080;-49
2022/01/12 03:36:39;;;;;;;10.30;3.85;;;;;;;-12.15;100.00;101075.56;5151782;27;20138;-49
2022/01/12 03:39:08;;;;;;;11.63;4.50;;;;;;;-12.11;100.00;101084.81;5151950;27;20047;-49
2022/01/12 03:41:36;;;;;;;9.25;3.63;;;;;;;-12.08;100.00;101087.13;5151800;27;20558;-50
2022/01/12 03:44:04;;;;;;;11.88;4.07;;;;;;;-12.08;100.00;101084.47;5151716;27;20047;-52
2022/01/12 03:46:35;;;;;;;12.02;4.07;;;;;;;-12.04;100.00;101087.59;5151537;27;20050;-50
2022/01/12 03:49:01;;;;;;;10.07;4.38;;;;;;;-12.01;100.00;101080.16;5151973;27;20481;-54
2022/01/12 03:51:28;;;;;;;11.68;3.60;;;;;;;-12.04;100.00;101079.66;5151394;27;20078;-49
2022/01/12 03:53:54;;;;;;;8.77;3.65;;;;;;;-12.03;100.00;101079.47;5151494;27;20049;-55
2022/01/12 03:56:20;;;;;;;8.57;3.42;;;;;;;-12.02;100.00;101086.44;5151628;27;20428;-49
2022/01/12 03:58:47;;;;;;;10.15;4.50;;;;;;;-11.97;100.00;101091.22;5151664;27;20046;-52
2022/01/12 04:01:13;;;;;;;13.57;4.53;;;;;;;-11.99;100.00;101088.75;5151211;27;20043;-49
2022/01/12 04:03:43;;;;;;;7.65;3.92;;;;;;;-12.05;100.00;101083.31;5151402;27;20084;-50
2022/01/12 04:08:54;;;;;;;9.88;3.60;;;;;;;-12.04;100.00;101071.72;5151546;27;20053;-52
2022/01/12 04:11:20;;;;;;;8.98;3.88;;;;;;;-12.11;100.00;101056.53;5151492;27;20068;-52
2022/01/12 04:13:49;;;;;;;11.23;4.72;;;;;;;-12.11;100.00;101061.00;5151132;27;20091;-50
2022/01/12 04:16:16;;;;;;;13.18;4.38;;;;;;;-12.19;100.00;101053.94;5151423;27;20544;-50
2022/01/12 04:18:43;;;;;;;7.45;3.25;;;;;;;-12.14;100.00;101064.00;5151229;27;20095;-54
2022/01/12 04:21:11;;;;;;;9.68;4.10;;;;;;;-12.13;100.00;101055.06;5151190;27;20099;-51
2022/01/12 04:23:38;;;;;;;11.88;5.30;;;;;;;-12.12;100.00;101059.38;5151028;27;20051;-52
2022/01/12 04:26:09;;;;;;;11.02;3.67;;;;;;;-12.18;100.00;101045.00;5152155;27;20090;-50
2022/01/12 04:28:38;;;;;;;10.55;4.10;;;;;;;-12.23;100.00;101052.59;5154968;27;20442;-51
2022/01/12 04:31:05;;;;;;;9.90;3.97;;;;;;;-12.17;100.00;101051.94;5154835;27;20043;-51
2022/01/12 04:33:31;;;;;;;12.25;4.25;;;;;;;-12.16;100.00;101050.09;5154515;27;20479;-48
2022/01/12 04:35:58;;;;;;;13.18;4.57;;;;;;;-12.19;100.00;101047.84;5154341;27;20525;-51
2022/01/12 04:38:27;;;;;;;11.98;4.07;;;;;;;-12.25;100.00;101049.31;5154936;27;20043;-49
2022/01/12 04:40:53;;;;;;;9.70;4.15;;;;;;;-12.27;100.00;101043.38;5154746;27;20050;-50
2022/01/12 04:43:21;;;;;;;6.88;3.65;;;;;;;-12.21;100.00;101044.53;5154706;27;20046;-49
2022/01/12 04:46:09;;;;;;;11.02;3.95;;;;;;;-12.21;100.00;101045.34;5154414;27;20146;-51
2022/01/12 04:48:49;;;;;;;9.50;4.70;;;;;;;-12.13;100.00;101039.19;5154702;27;20047;-48
2022/01/12 04:51:16;;;;;;;23.02;5.45;;;;;;;-12.17;100.00;101037.91;5154399;27;20474;-52
2022/01/12 04:53:42;;;;;;;9.82;4.35;;;;;;;-12.19;100.00;101031.97;5154398;27;20106;-50
2022/01/12 04:56:09;;;;;;;15.20;4.32;;;;;;;-12.20;100.00;101023.19;5154431;27;20133;-50
2022/01/12 04:58:35;;;;;;;6.63;3.97;;;;;;;-12.23;100.00;101028.00;5154095;27;20505;-49
2022/01/12 05:01:07;;;;;;;9.25;3.78;;;;;;;-12.23;100.00;101012.94;5154389;27;20078;-51
2022/01/12 05:06:38;;;;;;;16.20;5.22;;;;;;;-12.20;100.00;101015.25;5154415;27;20098;-52
2022/01/12 05:09:12;;;;;;;13.02;4.80;;;;;;;-12.02;100.00;101028.25;5154243;27;20054;-50
2022/01/12 05:14:24;;;;;;;9.88;4.63;;;;;;;-11.76;100.00;101041.19;5154229;27;19929;-53
2022/01/12 05:16:50;;;;;;;15.80;4.13;;;;;;;-11.73;100.00;101040.81;5153998;27;20416;-51
2022/01/12 05:19:17;;;;;;;11.02;4.63;;;;;;;-11.72;100.00;101039.00;5153868;27;20149;-52
2022/01/12 05:21:43;;;;;;;15.20;4.72;;;;;;;-11.67;100.00;101018.94;5153766;27;20047;-54
2022/01/12 05:24:10;;;;;;;7.63;4.40;;;;;;;-11.65;100.00;101005.56;5154135;27;20050;-54
2022/01/12 05:26:37;;;;;;;13.25;4.18;;;;;;;-11.63;100.00;100991.16;5153559;27;20053;-52
2022/01/12 05:29:03;;;;;;;17.73;4.50;;;;;;;-11.51;100.00;100996.88;5153926;27;20500;-52
2022/01/12 05:31:30;;;;;;;18.27;4.07;;;;;;;-11.52;100.00;100970.59;5153605;27;20107;-54
2022/01/12 05:33:59;;;;;;;9.00;4.10;;;;;;;-11.52;100.00;100960.00;5153830;27;20185;-55
2022/01/12 05:36:25;;;;;;;9.32;4.38;;;;;;;-11.44;100.00;100944.88;5153682;27;20057;-53
2022/01/12 05:38:52;;;;;;;7.15;3.55;;;;;;;-11.34;100.00;100938.50;5153081;27;20089;-61
2022/01/12 05:41:19;;;;;;;6.80;3.80;;;;;;;-11.21;100.00;100944.03;5153641;27;20142;-52
2022/01/12 05:43:46;;;;;;;6.47;3.63;;;;;;;-11.28;100.00;100929.88;5153472;27;20046;-53
2022/01/12 05:46:14;;;;;;;14.15;5.30;;;;;;;-11.20;100.00;100940.38;5153482;27;20542;-55
2022/01/12 05:51:27;;;;;;;8.65;3.88;;;;;;;-11.19;100.00;100919.03;5153327;27;20421;-59
2022/01/12 05:53:54;;;;;;;12.18;4.03;;;;;;;-11.16;100.00;100912.53;5153525;27;20071;-52
2022/01/12 05:56:21;;;;;;;9.30;3.88;;;;;;;-11.28;100.00;100895.44;5153166;27;20399;-59
2022/01/12 05:58:49;;;;;;;8.20;4.18;;;;;;;-11.29;100.00;100885.88;5153275;27;20113;-50
2022/01/12 06:01:16;;;;;;;10.45;4.25;;;;;;;-11.42;100.00;100860.00;5153062;27;20046;-54
2022/01/12 06:03:42;;;;;;;22.35;4.07;;;;;;;-11.57;100.00;100841.44;5153162;27;20146;-55
2022/01/12 06:06:08;;;;;;;9.55;3.65;;;;;;;-11.66;100.00;100824.81;5152878;27;20059;-52
2022/01/12 06:08:35;;;;;;;12.02;4.45;;;;;;;-11.72;100.00;100825.53;5153016;27;20078;-60
2022/01/12 06:11:02;;;;;;;11.10;4.40;;;;;;;-11.76;100.00;100813.66;5153128;27;20465;-52
2022/01/12 06:13:29;;;;;;;8.13;3.95;;;;;;;-11.82;100.00;100814.38;5153266;27;20055;-60
2022/01/12 06:15:55;;;;;;;6.97;4.05;;;;;;;-11.81;100.00;100810.72;5153041;27;20447;-52
2022/01/12 06:18:23;;;;;;;9.05;4.00;;;;;;;-11.80;100.00;100819.47;5160222;27;20070;-53
2022/01/12 06:20:49;;;;;;;16.48;4.60;;;;;;;-11.85;100.00;100820.06;5172603;27;20488;-53
2022/01/12 06:23:17;;;;;;;7.35;4.55;;;;;;;-11.92;100.00;100830.50;5173137;27;20151;-54
2022/01/12 06:25:43;;;;;;;8.48;3.80;;;;;;;-11.92;100.00;100833.16;5173263;27;20050;-54
2022/01/12 06:28:23;;;;;;;12.27;4.32;;;;;;;-11.94;100.00;100840.44;5173442;27;20145;-51
2022/01/12 06:33:35;;;;;;;12.32;4.45;;;;;;;-11.92;100.00;100882.59;5173696;27;20045;-55
2022/01/12 06:36:02;;;;;;;13.90;4.40;;;;;;;-11.80;100.00;100893.53;5173682;27;20083;-55
2022/01/12 06:38:29;;;;;;;6.72;4.18;;;;;;;-11.76;100.00;100908.06;5158567;27;20078;-56
2022/01/12 06:40:55;;;;;;;17.75;5.07;;;;;;;-11.73;100.00;100915.63;5152405;27;20051;-55
2022/01/12 06:43:22;;;;;;;7.38;3.75;;;;;;;-11.76;100.00;100913.34;5152464;27;20054;-55
2022/01/12 06:45:48;;;;;;;10.13;3.85;;;;;;;-11.69;100.00;100919.59;5152557;27;20057;-55
2022/01/12 06:48:14;;;;;;;8.82;4.22;;;;;;;-11.64;100.00;100922.53;5164327;27;20053;-52
2022/01/12 06:50:41;;;;;;;12.23;4.78;;;;;;;-11.64;100.00;100911.94;5171113;27;20050;-58
2022/01/12 06:53:07;;;;;;;11.50;4.13;;;;;;;-11.57;100.00;100912.06;5172834;27;20082;-55
2022/01/12 06:55:33;;;;;;;12.23;3.75;;;;;;;-11.53;100.00;100908.88;5172939;27;20053;-52
2022/01/12 06:58:00;;;;;;;8.32;3.85;;;;;;;-11.53;100.00;100906.22;5173189;27;20136;-55
2022/01/12 07:00:26;;;;;;;26.85;4.68;;;;;;;-11.51;100.00;100906.88;5168813;27;20069;-55
2022/01/12 07:02:54;;;;;;;8.00;3.90;;;;;;;-11.47;100.00;100894.94;5152155;27;20138;-51
2022/01/12 07:05:20;;;;;;;10.32;5.00;;;;;;;-11.44;100.00;100899.03;5151953;27;20051;-56
2022/01/12 07:07:46;;;;;;;9.38;4.57;;;;;;;-11.45;100.00;100892.94;5151759;27;20047;-51
2022/01/12 07:10:12;;;;;;;15.70;4.82;;;;;;;-11.29;100.00;100904.41;5151919;27;20047;-55
2022/01/12 07:12:39;;;;;;;8.75;4.05;;;;;;;-11.25;100.00;100900.38;5167818;27;20050;-52
2022/01/12 07:15:06;;;;;;;12.20;4.40;;;;;;;-11.25;100.00;100890.59;5172544;27;20133;-55
2022/01/12 07:17:33;;;;;;;9.20;4.38;;;;;;;-11.38;100.00;100875.34;5172498;27;20042;-54
2022/01/12 07:19:59;;;;;;;13.85;5.22;;;;;;;-11.34;100.00;100877.63;5171837;27;20057;-55
2022/01/12 07:22:26;;;;;;;15.85;4.65;;;;;;;-11.24;100.00;100872.91;5163920;27;20137;-55
2022/01/12 07:24:52;;;;;;;8.77;3.88;;;;;;;-11.10;100.00;100892.44;5157753;27;20496;-55
2022/01/12 07:27:18;;;;;;;7.25;3.60;;;;;;;-10.46;100.00;100917.41;5172282;27;20068;-52
2022/01/12 07:29:44;;;;;;;8.20;4.55;;;;;;;-10.09;100.00;100906.81;5172500;27;20042;-55
2022/01/12 07:32:11;;;;;;;8.10;4.05;;;;;;;-10.06;100.00;100864.81;5172388;27;20075;-54
2022/01/12 07:34:38;;;;;;;6.65;3.83;;;;;;;-10.01;100.00;100827.91;5169608;27;20154;-55
2022/01/12 07:37:05;;;;;;;10.90;4.60;;;;;;;-9.95;100.00;100787.38;5151640;27;20047;-55
2022/01/12 07:39:32;;;;;;;18.48;6.13;;;;;;;-9.78;100.00;100753.41;5151267;27;20093;-54
2022/01/12 07:41:58;;;;;;;23.30;6.43;;;;;;;-9.90;100.00;100709.84;5151432;27;20046;-54
2022/01/12 07:44:24;;;;;;;12.18;5.25;;;;;;;-9.98;100.00;100663.06;5152231;27;20050;-55
2022/01/12 07:46:51;;;;;;;9.88;4.65;;;;;;;-10.10;100.00;100635.41;5173062;27;20084;-54
2022/01/12 07:49:17;;;;;;;13.32;4.38;;;;;;;-9.97;100.00;100645.28;5172486;27;20649;-55
2022/01/12 07:51:44;;;;;;;12.38;4.75;;;;;;;-9.58;100.00;100660.63;5172161;27;20050;-53
2022/01/12 07:54:10;;;;;;;14.35;5.30;;;;;;;-9.52;100.00;100635.16;5172310;27;20077;-55
2022/01/12 07:56:36;;;;;;;11.77;5.35;;;;;;;-9.36;100.00;100616.22;5152594;27;20420;-53
2022/01/12 07:59:03;;;;;;;12.77;5.47;;;;;;;-9.22;100.00;100577.25;5151186;27;20051;-55
2022/01/12 08:01:29;;;;;;;13.70;4.95;;;;;;;-9.30;100.00;100541.03;5170128;27;20050;-55
2022/01/12 08:03:55;;;;;;;12.32;5.45;;;;;;;-9.13;100.00;100541.50;5172091;27;20524;-55
2022/01/12 08:06:21;;;;;;;12.30;4.88;;;;;;;-8.91;100.00;100526.19;5172369;27;20053;-55
2022/01/12 08:08:48;;;;;;;12.93;5.40;;;;;;;-8.98;100.00;100477.53;5172432;27;20042;-54
2022/01/12 08:11:15;;;;;;;9.05;4.25;;;;;;;-8.68;100.00;100464.63;5165389;27;20053;-54
2022/01/12 08:13:42;;;;;;;10.18;4.63;;;;;;;-8.43;100.00;100435.53;5171988;27;20057;-55
2022/01/12 08:16:09;;;;;;;14.68;5.43;;;;;;;-8.30;100.00;100381.44;5163864;27;20050;-55
2022/01/12 08:18:35;;;;;;;8.55;4.53;;;;;;;-8.23;100.00;100326.38;5150894;27;20054;-55
2022/01/12 08:21:04;;;;;;;12.32;4.75;;;;;;;-8.24;100.00;100268.84;5150928;27;20054;-55
2022/01/12 08:23:30;;;;;;;16.08;4.72;;;;;;;-7.89;100.00;100242.63;5151118;27;20054;-53
2022/01/12 08:25:57;;;;;;;10.82;4.32;;;;;;;-7.37;100.00;100215.69;5150203;27;20138;-55
2022/01/12 08:28:24;;;;;;;9.80;4.80;;;;;;;-7.08;100.00;100125.38;5159566;27;20061;-55
2022/01/12 08:30:50;;;;;;;8.75;4.10;;;;;;;-6.87;100.00;100040.38;5171334;27;20055;-54
2022/01/12 08:33:17;;;;;;;8.63;4.38;;;;;;;-6.70;100.00;99987.16;5171653;27;20054;-56
2022/01/12 08:35:43;;;;;;;7.88;3.70;;;;;;;-6.42;100.00;99945.66;5171488;27;20103;-56
2022/01/12 08:38:10;;;;;;;9.30;3.85;;;;;;;-6.31;100.00;99907.47;5162276;27;20052;-54
2022/01/12 08:40:38;;;;;;;10.43;4.82;;;;;;;-6.08;100.00;99887.91;5171453;27;20043;-52
2022/01/12 08:43:05;;;;;;;10.05;4.95;;;;;;;-6.26;100.00;99874.75;5171878;27;20053;-54
2022/01/12 08:45:31;;;;;;;11.70;5.68;;;;;;;-6.75;100.00;99872.41;5170113;27;20073;-51
2022/01/12 08:47:58;;;;;;;15.63;6.40;;;;;;;-7.16;100.00;99870.69;5150896;27;20085;-56
2022/01/12 08:50:25;;;;;;;11.88;5.53;;;;;;;-7.42;100.00;99861.28;5150462;27;20133;-55
2022/01/12 08:52:51;;;;;;;10.95;5.78;;;;;;;-7.51;100.00;99857.34;5150517;27;20051;-51
2022/01/12 08:55:21;;;;;;;11.52;5.65;;;;;;;-7.56;100.00;99863.38;5150527;27;20512;-54
2022/01/12 08:57:49;;;;;;;16.70;5.50;;;;;;;-7.81;100.00;99864.31;5150259;27;20047;-55
2022/01/12 09:00:17;;;;;;;13.73;5.20;;;;;;;-8.26;100.00;99865.78;5150347;27;20095;-55
2022/01/12 09:02:44;;;;;;;16.02;5.65;;;;;;;-8.22;100.00;99889.06;5150624;27;20074;-52
2022/01/12 09:05:12;;;;;;;9.48;5.70;;;;;;;-8.27;100.00;99898.75;5150533;27;20089;-51
2022/01/12 09:07:38;;;;;;;13.80;5.00;;;;;;;-8.36;100.00;99906.22;5150590;27;20058;-54
2022/01/12 09:10:05;;;;;;;11.95;5.10;;;;;;;-8.29;100.00;99918.41;5150288;27;20519;-52
2022/01/12 09:12:32;;;;;;;12.43;4.90;;;;;;;-8.12;100.00;99926.59;5151125;27;20127;-52
2022/01/12 09:14:58;;;;;;;15.15;6.18;;;;;;;-7.89;100.00;99947.19;5153823;27;20054;-53
2022/01/12 09:17:25;;;;;;;10.15;5.72;;;;;;;-7.75;100.00;99928.38;5153890;27;20059;-53
2022/01/12 09:19:53;;;;;;;13.90;5.28;;;;;;;-8.05;100.00;99908.69;5153977;27;20489;-53
2022/01/12 09:22:19;;;;;;;11.43;5.82;;;;;;;-8.32;100.00;99904.75;5153835;27;20047;-53
2022/01/12 09:24:46;;;;;;;13.32;5.05;;;;;;;-8.48;100.00;99916.00;5153753;27;20060;-52
2022/01/12 09:27:12;;;;;;;11.05;4.65;;;;;;;-8.64;100.00;99933.34;5153177;27;20477;-53
2022/01/12 09:29:39;;;;;;;11.13;4.30;;;;;;;-8.54;100.00;99947.75;5153785;27;20046;-55
2022/01/12 09:32:05;;;;;;;10.35;4.28;;;;;;;-8.56;100.00;99967.63;5153285;27;20050;-57
2022/01/12 09:34:32;;;;;;;10.60;4.65;;;;;;;-8.67;100.00;99969.13;5153752;27;20130;-60
2022/01/12 09:36:59;;;;;;;9.25;4.43;;;;;;;-8.69;100.00;99986.38;5156124;27;20054;-56
2022/01/12 09:39:25;;;;;;;10.23;4.30;;;;;;;-8.65;100.00;99995.53;5174698;27;20077;-51
2022/01/12 09:41:51;;;;;;;10.05;4.40;;;;;;;-8.65;100.00;100012.28;5174116;27;20111;-54
2022/01/12 09:44:18;;;;;;;8.02;4.10;;;;;;;-8.70;100.00;100012.09;5174505;27;20055;-54
2022/01/12 09:46:44;;;;;;;11.82;4.97;;;;;;;-8.56;100.00;100031.44;5164393;27;20062;-55
2022/01/12 09:49:11;;;;;;;13.43;4.82;;;;;;;-8.45;100.00;100027.25;5171820;27;20420;-53
2022/01/12 09:51:38;;;;;;;10.77;4.72;;;;;;;-8.26;100.00;100044.81;5173561;27;20450;-53
2022/01/12 09:54:05;;;;;;;14.68;4.45;;;;;;;-8.17;100.00;100032.84;5173819;27;20047;-54
2022/01/12 09:56:32;;;;;;;10.93;5.25;;;;;;;-8.22;100.00;100014.09;5167773;27;20054;-54
2022/01/12 09:59:00;;;;;;;9.68;4.60;;;;;;;-8.14;100.00;100002.31;5173541;27;20512;-55
2022/01/12 10:01:29;;;;;;;11.18;4.68;;;;;;;-7.98;100.00;100001.75;5174103;27;20117;-54
2022/01/12 10:04:05;;;;;;;8.43;4.40;;;;;;;-7.73;100.00;99993.66;5164460;27;20058;-55
2022/01/12 10:06:35;;;;;;;8.27;4.15;;;;;;;-7.73;100.00;99972.38;5168457;27;20496;-52
2022/01/12 10:09:03;;;;;;;13.70;5.18;;;;;;;-7.70;100.00;99949.78;5173778;27;20102;-55
2022/01/12 10:11:29;;;;;;;13.27;5.22;;;;;;;-7.72;100.00;99938.56;5173274;27;20138;-55
2022/01/12 10:13:56;;;;;;;8.43;4.75;;;;;;;-7.66;100.00;99921.69;5155148;27;20058;-53
2022/01/12 10:16:26;;;;;;;10.93;4.78;;;;;;;-7.68;100.00;99911.25;5153030;27;20050;-52
2022/01/12 10:18:59;;;;;;;10.88;4.38;;;;;;;-7.79;100.00;99900.56;5152537;27;20054;-53
2022/01/12 10:21:31;;;;;;;21.17;5.30;;;;;;;-7.82;100.00;99891.19;5152983;27;20408;-55
2022/01/12 10:23:59;;;;;;;7.75;4.60;;;;;;;-7.83;100.00;99889.53;5160694;27;20050;-55
2022/01/12 10:26:32;;;;;;;9.05;4.72;;;;;;;-7.99;100.00;99883.03;5173358;27;20050;-55
2022/01/12 10:29:05;;;;;;;10.95;4.47;;;;;;;-8.09;100.00;99886.22;5173218;27;20050;-58
2022/01/12 10:31:43;;;;;;;10.40;4.93;;;;;;;-8.16;100.00;99893.50;5173260;27;20046;-55
2022/01/12 10:34:09;;;;;;;11.60;4.80;;;;;;;-8.03;100.00;99904.97;5163719;27;20101;-55
2022/01/12 10:36:39;;;;;;;8.20;4.53;;;;;;;-7.90;100.00;99924.22;5152923;27;20059;-55
2022/01/12 10:39:06;;;;;;;7.35;3.75;;;;;;;-7.86;100.00;99921.97;5152686;27;20069;-55
2022/01/12 10:41:33;;;;;;;7.25;3.92;;;;;;;-7.97;100.00;99915.53;5152844;27;20078;-55
2022/01/12 10:43:59;;;;;;;9.63;4.30;;;;;;;-7.98;100.00;99916.56;5159283;27;20104;-52
2022/01/12 10:46:29;;;;;;;12.52;5.03;;;;;;;-7.77;100.00;99931.22;5173239;27;20412;-53
2022/01/12 10:48:56;;;;;;;9.55;4.50;;;;;;;-7.66;100.00;99932.34;5173110;27;20138;-53
2022/01/12 10:51:25;;;;;;;7.25;3.72;;;;;;;-7.52;100.00;99927.63;5172910;27;20519;-54
2022/01/12 10:53:54;;;;;;;11.93;4.68;;;;;;;-7.40;100.00;99912.47;5167519;27;20051;-52
2022/01/12 10:56:23;;;;;;;10.23;4.35;;;;;;;-7.38;100.00;99897.09;5151862;27;20098;-55
2022/01/12 10:58:52;;;;;;;17.55;4.53;;;;;;;-7.30;100.00;99891.41;5152140;27;20094;-55
2022/01/12 11:01:21;;;;;;;14.73;4.30;;;;;;;-7.09;100.00;99897.25;5152106;27;20552;-58
2022/01/12 11:03:48;;;;;;;10.13;4.20;;;;;;;-6.92;100.00;99890.16;5156166;27;20050;-54
2022/01/12 11:06:15;;;;;;;9.57;4.15;;;;;;;-6.65;100.00;99871.81;5173031;27;20144;-55
2022/01/12 11:08:43;;;;;;;10.73;4.15;;;;;;;-6.27;100.00;99873.91;5172946;27;20046;-54
2022/01/12 11:11:10;;;;;;;13.90;4.15;;;;;;;-5.88;100.00;99843.91;5170871;27;20110;-54
2022/01/12 11:13:36;;;;;;;13.73;4.78;;;;;;;-5.49;100.00;99823.47;5171010;27;20079;-54
2022/01/12 11:16:04;;;;;;;10.05;4.07;;;;;;;-5.19;100.00;99806.28;5172935;27;20420;-54
2022/01/12 11:18:33;;;;;;;8.60;4.47;;;;;;;-4.99;100.00;99802.03;5152582;27;20151;-55
2022/01/12 11:21:04;;;;;;;7.38;3.85;;;;;;;-4.90;100.00;99810.41;5151848;27;20080;-56
2022/01/12 11:23:35;;;;;;;13.07;4.25;;;;;;;-4.90;100.00;99817.63;5163023;27;20065;-53
2022/01/12 11:26:12;;;;;;;13.15;3.80;;;;;;;-4.99;100.00;99812.72;5172216;27;20402;-54
2022/01/12 11:28:39;;;;;;;11.15;4.10;;;;;;;-5.04;100.00;99817.19;5172588;27;20058;-55
2022/01/12 11:31:08;;;;;;;11.07;4.55;;;;;;;-4.92;100.00;99804.53;5172438;27;20085;-55
2022/01/12 11:33:40;;;;;;;10.40;3.88;;;;;;;-5.04;100.00;99801.94;5161044;27;20061;-55
2022/01/12 11:36:14;;;;;;;10.90;4.68;;;;;;;-5.19;100.00;99812.44;5150812;27;20225;-55
2022/01/12 11:38:47;;;;;;;12.77;4.53;;;;;;;-5.19;100.00;99801.75;5152935;27;20050;-55
2022/01/12 11:41:16;;;;;;;17.23;5.30;;;;;;;-5.22;100.00;99805.72;5151404;27;20047;-53
2022/01/12 11:43:44;;;;;;;9.82;4.38;;;;;;;-5.34;100.00;99794.31;5151563;27;20566;-52
2022/01/12 11:46:14;;;;;;;11.35;4.15;;;;;;;-5.66;100.00;99778.06;5156467;27;20106;-55
2022/01/12 11:48:45;;;;;;;9.52;3.95;;;;;;;-6.00;100.00;99762.06;5172015;27;20060;-55
2022/01/12 11:51:13;;;;;;;10.13;3.97;;;;;;;-6.32;100.00;99758.28;5172177;27;20092;-60
2022/01/12 11:53:50;;;;;;;8.65;3.97;;;;;;;-6.44;100.00;99745.00;5172000;27;20058;-60
2022/01/12 11:56:19;;;;;;;12.50;4.28;;;;;;;-6.63;100.00;99760.38;5170194;27;20137;-51
2022/01/12 11:58:54;;;;;;;12.35;3.83;;;;;;;-6.80;100.00;99776.31;5172135;27;20077;-55
2022/01/12 12:01:22;;;;;;;10.32;4.10;;;;;;;-6.90;100.00;99794.75;5163120;27;20077;-55
2022/01/12 12:03:59;;;;;;;10.02;3.92;;;;;;;-6.82;100.00;99837.06;5154991;27;20054;-55
2022/01/12 12:06:25;;;;;;;9.35;4.30;;;;;;;-6.82;100.00;99870.91;5154197;27;20145;-51
2022/01/12 12:09:00;;;;;;;9.20;4.03;;;;;;;-6.83;100.00;99915.44;5167058;27;20415;-51
2022/01/12 12:11:28;;;;;;;8.18;3.88;;;;;;;-6.94;100.00;99934.88;5172106;27;20447;-50
2022/01/12 12:13:59;;;;;;;6.50;3.10;;;;;;;-6.96;100.00;99976.97;5160955;27;20065;-54